createdAt,value
2019-04-06T00:00:48.001Z,100.00
2019-04-06T00:03:18.545Z,100.00
2019-04-06T00:05:49.095Z,100.00
2019-04-06T00:08:19.784Z,100.00
2019-04-06T00:10:50.327Z,100.00
2019-04-06T00:13:20.968Z,100.00
2019-04-06T00:15:54.533Z,100.00
2019-04-06T00:18:25.133Z,100.00
2019-04-06T00:20:55.738Z,100.00
2019-04-06T00:23:26.339Z,100.00
2019-04-06T00:25:56.902Z,100.00
2019-04-06T00:28:27.453Z,100.00
2019-04-06T00:31:20.022Z,100.00
2019-04-06T00:33:50.690Z,100.00
2019-04-06T00:36:21.205Z,100.00
2019-04-06T00:38:51.859Z,100.00
2019-04-06T00:41:22.420Z,100.00
2019-04-06T00:43:53.047Z,100.00
2019-04-06T00:46:23.748Z,100.00
2019-04-06T00:48:54.332Z,100.00
2019-04-06T00:51:25.273Z,100.00
2019-04-06T00:53:55.901Z,100.00
2019-04-06T00:56:26.449Z,100.00
2019-04-06T00:58:57.053Z,100.00
2019-04-06T01:01:27.582Z,100.00
2019-04-06T01:03:58.237Z,100.00
2019-04-06T01:06:28.782Z,100.00
2019-04-06T01:08:59.414Z,100.00
2019-04-06T01:11:30.070Z,100.00
2019-04-06T01:14:00.708Z,100.00
2019-04-06T01:16:31.221Z,100.00
2019-04-06T01:19:03.146Z,100.00
2019-04-06T01:21:35.111Z,100.00
2019-04-06T01:24:05.754Z,100.00
2019-04-06T01:26:36.340Z,100.00
2019-04-06T01:29:06.940Z,100.00
2019-04-06T01:31:37.488Z,100.00
2019-04-06T01:34:08.093Z,100.00
2019-04-06T01:36:38.627Z,100.00
2019-04-06T01:39:09.322Z,100.00
2019-04-06T01:41:39.906Z,100.00
2019-04-06T01:44:10.526Z,100.00
2019-04-06T01:46:41.113Z,100.00
2019-04-06T01:49:11.766Z,100.00
2019-04-06T01:51:42.318Z,100.00
2019-04-06T01:54:12.983Z,100.00
2019-04-06T01:56:43.627Z,100.00
2019-04-06T01:59:14.193Z,100.00
2019-04-06T02:02:09.478Z,100.00
2019-04-06T02:04:40.217Z,100.00
2019-04-06T02:07:10.768Z,100.00
2019-04-06T02:09:41.361Z,100.00
2019-04-06T02:12:11.944Z,100.00
2019-04-06T02:14:44.173Z,100.00
2019-04-06T02:17:14.747Z,100.00
2019-04-06T02:19:45.378Z,100.00
2019-04-06T02:22:15.950Z,100.00
2019-04-06T02:24:46.552Z,100.00
2019-04-06T02:27:17.066Z,100.00
2019-04-06T02:29:49.325Z,100.00
2019-04-06T02:32:34.809Z,100.00
2019-04-06T02:35:44.445Z,100.00
2019-04-06T02:38:24.578Z,100.00
2019-04-06T02:41:05.311Z,100.00
2019-04-06T02:43:36.317Z,100.00
2019-04-06T02:46:07.073Z,100.00
2019-04-06T02:48:37.655Z,100.00
2019-04-06T02:51:08.251Z,100.00
2019-04-06T02:53:38.864Z,100.00
2019-04-06T02:56:09.467Z,100.00
2019-04-06T02:58:40.103Z,100.00
2019-04-06T03:01:10.846Z,100.00
2019-04-06T03:03:41.439Z,100.00
2019-04-06T03:06:15.095Z,100.00
2019-04-06T03:08:45.603Z,100.00
2019-04-06T03:11:16.174Z,100.00
2019-04-06T03:13:46.764Z,100.00
2019-04-06T03:16:17.464Z,100.00
2019-04-06T03:18:48.105Z,100.00
2019-04-06T03:21:18.647Z,100.00
2019-04-06T03:23:51.918Z,100.00
2019-04-06T03:26:21.490Z,100.00
2019-04-06T03:28:52.359Z,100.00
2019-04-06T03:31:26.988Z,100.00
2019-04-06T03:33:55.285Z,100.00
2019-04-06T03:36:25.837Z,100.00
2019-04-06T03:38:56.442Z,100.00
2019-04-06T03:41:27.015Z,100.00
2019-04-06T03:43:57.578Z,100.00
2019-04-06T03:46:28.146Z,100.00
2019-04-06T03:48:58.764Z,100.00
2019-04-06T03:51:29.304Z,100.00
2019-04-06T03:53:59.873Z,100.00
2019-04-06T03:56:30.453Z,100.00
2019-04-06T03:59:01.044Z,100.00
2019-04-06T04:01:31.585Z,100.00
2019-04-06T04:04:02.183Z,100.00
2019-04-06T04:06:32.745Z,100.00
2019-04-06T04:09:04.878Z,100.00
2019-04-06T04:11:35.391Z,100.00
2019-04-06T04:14:06.200Z,100.00
2019-04-06T04:16:39.848Z,100.00
2019-04-06T04:19:10.520Z,100.00
2019-04-06T04:21:41.052Z,100.00
2019-04-06T04:24:11.758Z,100.00
2019-04-06T04:26:42.283Z,100.00
2019-04-06T04:29:12.861Z,100.00
2019-04-06T04:31:44.851Z,100.00
2019-04-06T04:34:15.427Z,100.00
2019-04-06T04:36:46.039Z,100.00
2019-04-06T04:39:16.640Z,100.00
2019-04-06T04:41:47.270Z,100.00
2019-04-06T04:44:17.848Z,100.00
2019-04-06T04:46:48.536Z,100.00
2019-04-06T04:49:19.367Z,100.00
2019-04-06T04:51:49.870Z,100.00
2019-04-06T04:54:20.497Z,100.00
2019-04-06T04:56:51.188Z,100.00
2019-04-06T04:59:21.985Z,100.00
2019-04-06T05:01:52.762Z,100.00
2019-04-06T05:04:23.640Z,100.00
2019-04-06T05:06:54.218Z,100.00
2019-04-06T05:09:24.885Z,100.00
2019-04-06T05:11:55.429Z,100.00
2019-04-06T05:14:59.603Z,100.00
2019-04-06T05:17:31.548Z,100.00
2019-04-06T05:20:02.635Z,100.00
2019-04-06T05:22:34.662Z,100.00
2019-04-06T05:25:08.143Z,100.00
2019-04-06T05:27:38.729Z,100.00
2019-04-06T05:30:11.267Z,100.00
2019-04-06T05:32:41.826Z,100.00
2019-04-06T05:35:12.460Z,100.00
2019-04-06T05:37:43.647Z,100.00
2019-04-06T05:40:14.636Z,100.00
2019-04-06T05:42:45.170Z,100.00
2019-04-06T05:45:16.007Z,100.00
2019-04-06T05:47:47.968Z,100.00
2019-04-06T05:50:18.691Z,100.00
2019-04-06T05:52:49.224Z,100.00
2019-04-06T05:55:19.833Z,100.00
2019-04-06T05:57:50.443Z,100.00
2019-04-06T06:00:21.049Z,100.00
2019-04-06T06:02:51.829Z,100.00
2019-04-06T06:05:26.518Z,100.00
2019-04-06T06:07:57.126Z,100.00
2019-04-06T06:10:27.757Z,100.00
2019-04-06T06:12:58.263Z,100.00
2019-04-06T06:15:28.942Z,100.00
2019-04-06T06:17:59.661Z,100.00
2019-04-06T06:20:30.314Z,100.00
2019-04-06T06:23:00.862Z,100.00
2019-04-06T06:25:34.659Z,100.00
2019-04-06T06:28:14.567Z,100.00
2019-04-06T06:30:42.449Z,100.00
2019-04-06T06:33:13.431Z,100.00
2019-04-06T06:35:44.216Z,100.00
2019-04-06T06:38:14.784Z,100.00
2019-04-06T06:40:45.539Z,100.00
2019-04-06T06:43:16.164Z,100.00
2019-04-06T06:45:46.783Z,100.00
2019-04-06T06:48:17.632Z,100.00
2019-04-06T06:50:48.260Z,100.00
2019-04-06T06:53:18.818Z,100.00
2019-04-06T06:55:49.449Z,100.00
2019-04-06T06:58:25.614Z,100.00
2019-04-06T07:00:52.467Z,100.00
2019-04-06T07:03:23.037Z,100.00
2019-04-06T07:05:53.657Z,100.00
2019-04-06T07:08:24.250Z,100.00
2019-04-06T07:10:56.288Z,100.00
2019-04-06T07:13:26.840Z,100.00
2019-04-06T07:15:57.487Z,100.00
2019-04-06T07:18:30.826Z,100.00
2019-04-06T07:21:01.607Z,100.00
2019-04-06T07:23:32.238Z,100.00
2019-04-06T07:26:03.483Z,100.00
2019-04-06T07:28:38.180Z,100.00
2019-04-06T07:31:06.428Z,100.00
2019-04-06T07:33:37.044Z,100.00
2019-04-06T07:36:09.833Z,100.00
2019-04-06T07:38:40.540Z,100.00
2019-04-06T07:41:11.120Z,100.00
2019-04-06T07:43:41.705Z,100.00
2019-04-06T07:46:12.388Z,100.00
2019-04-06T07:48:42.954Z,100.00
2019-04-06T07:51:13.765Z,100.00
2019-04-06T07:53:44.345Z,100.00
2019-04-06T07:56:15.010Z,100.00
2019-04-06T07:58:49.068Z,100.00
2019-04-06T08:01:18.231Z,100.00
2019-04-06T08:03:48.808Z,100.00
2019-04-06T08:06:19.451Z,100.00
2019-04-06T08:08:50.066Z,100.00
2019-04-06T08:11:20.678Z,100.00
2019-04-06T08:13:51.525Z,100.00
2019-04-06T08:16:22.357Z,100.00
2019-04-06T08:18:53.467Z,99.95
2019-04-06T08:21:24.063Z,99.66
2019-04-06T08:23:54.629Z,98.24
2019-04-06T08:26:27.989Z,98.74
2019-04-06T08:29:02.016Z,98.70
2019-04-06T08:31:30.885Z,98.77
2019-04-06T08:34:01.507Z,99.07
2019-04-06T08:36:32.349Z,98.62
2019-04-06T08:39:05.271Z,98.36
2019-04-06T08:41:38.063Z,98.01
2019-04-06T08:44:08.329Z,96.37
2019-04-06T08:46:38.935Z,96.69
2019-04-06T08:49:09.527Z,96.29
2019-04-06T08:51:40.167Z,96.65
2019-04-06T08:54:10.772Z,96.25
2019-04-06T08:56:41.390Z,95.35
2019-04-06T08:59:13.523Z,95.05
2019-04-06T09:01:44.533Z,95.09
2019-04-06T09:04:15.132Z,94.78
2019-04-06T09:06:45.978Z,94.97
2019-04-06T09:09:17.120Z,94.53
2019-04-06T09:11:47.767Z,93.77
2019-04-06T09:14:18.357Z,93.84
2019-04-06T09:16:52.759Z,93.81
2019-04-06T09:19:23.364Z,93.90
2019-04-06T09:21:53.961Z,93.65
2019-04-06T09:24:24.570Z,93.78
2019-04-06T09:26:55.131Z,93.56
2019-04-06T09:29:25.915Z,93.41
2019-04-06T09:31:57.113Z,92.38
2019-04-06T09:34:30.997Z,92.73
2019-04-06T09:37:00.243Z,92.56
2019-04-06T09:39:30.791Z,92.69
2019-04-06T09:42:01.782Z,92.50
2019-04-06T09:44:47.576Z,92.90
2019-04-06T09:47:25.186Z,93.09
2019-04-06T09:50:23.569Z,92.46
2019-04-06T09:53:03.414Z,91.75
2019-04-06T09:55:58.797Z,91.21
2019-04-06T09:58:35.586Z,90.22
2019-04-06T10:01:41.768Z,90.72
2019-04-06T10:04:29.693Z,91.24
2019-04-06T10:07:16.599Z,89.98
2019-04-06T10:10:10.089Z,88.52
2019-04-06T10:13:17.698Z,88.69
2019-04-06T10:16:14.241Z,87.58
2019-04-06T10:19:22.210Z,88.39
2019-04-06T10:22:14.808Z,86.99
2019-04-06T10:25:13.421Z,87.01
2019-04-06T10:28:08.957Z,86.44
2019-04-06T10:30:55.109Z,87.44
2019-04-06T10:33:56.378Z,86.93
2019-04-06T10:36:55.102Z,86.54
2019-04-06T10:39:39.457Z,85.39
2019-04-06T10:42:37.918Z,85.93
2019-04-06T10:45:15.323Z,84.82
2019-04-06T10:47:52.750Z,85.47
2019-04-06T10:50:41.022Z,85.14
2019-04-06T10:53:25.153Z,84.81
2019-04-06T10:56:04.791Z,83.81
2019-04-06T10:58:54.317Z,84.65
2019-04-06T11:01:49.419Z,85.34
2019-04-06T11:04:27.403Z,85.38
2019-04-06T11:07:20.114Z,85.18
2019-04-06T11:10:15.554Z,84.37
2019-04-06T11:13:03.518Z,83.85
2019-04-06T11:15:50.748Z,84.01
2019-04-06T11:18:46.042Z,83.38
2019-04-06T11:21:34.334Z,83.13
2019-04-06T11:24:23.796Z,84.00
2019-04-06T11:27:17.602Z,83.35
2019-04-06T11:29:57.972Z,83.65
2019-04-06T11:32:50.389Z,84.14
2019-04-06T11:35:46.217Z,82.66
2019-04-06T11:38:44.266Z,81.81
2019-04-06T11:41:27.004Z,82.00
2019-04-06T11:44:17.447Z,81.42
2019-04-06T11:47:25.850Z,81.54
2019-04-06T11:50:23.638Z,79.73
2019-04-06T11:53:14.926Z,79.95
2019-04-06T11:56:02.823Z,78.65
2019-04-06T11:58:47.585Z,77.15
2019-04-06T12:01:44.903Z,74.90
2019-04-06T12:04:37.719Z,74.69
2019-04-06T12:07:33.467Z,76.36
2019-04-06T12:10:21.949Z,76.38
2019-04-06T12:13:04.691Z,76.87
2019-04-06T12:15:52.623Z,75.56
2019-04-06T12:18:30.574Z,74.98
2019-04-06T12:21:25.167Z,74.34
2019-04-06T12:24:23.652Z,75.75
2019-04-06T12:27:13.178Z,74.39
2019-04-06T12:30:14.847Z,72.58
2019-04-06T12:33:19.716Z,74.05
2019-04-06T12:36:11.962Z,74.18
2019-04-06T12:39:00.623Z,72.54
2019-04-06T12:41:48.556Z,73.36
2019-04-06T12:44:38.083Z,73.52
2019-04-06T12:47:31.750Z,73.93
2019-04-06T12:50:33.225Z,72.85
2019-04-06T12:53:21.650Z,72.08
2019-04-06T12:56:07.162Z,70.44
2019-04-06T12:59:01.829Z,70.94
2019-04-06T13:01:49.194Z,67.80
2019-04-06T13:04:37.076Z,68.25
2019-04-06T13:07:42.062Z,68.34
2019-04-06T13:10:34.902Z,68.30
2019-04-06T13:13:23.174Z,69.35
2019-04-06T13:16:06.397Z,69.19
2019-04-06T13:19:08.061Z,68.84
2019-04-06T13:21:57.564Z,69.00
2019-04-06T13:25:02.618Z,69.87
2019-04-06T13:27:41.367Z,69.94
2019-04-06T13:30:29.709Z,69.51
2019-04-06T13:33:17.615Z,69.91
2019-04-06T13:36:00.438Z,69.32
2019-04-06T13:38:40.601Z,70.01
2019-04-06T13:41:39.034Z,69.82
2019-04-06T13:44:31.536Z,70.44
2019-04-06T13:47:33.563Z,69.44
2019-04-06T13:50:22.814Z,68.91
2019-04-06T13:53:20.305Z,69.93
2019-04-06T13:56:28.058Z,71.04
2019-04-06T13:59:20.294Z,70.03
2019-04-06T14:02:15.327Z,71.34
2019-04-06T14:05:05.093Z,71.38
2019-04-06T14:07:54.610Z,71.55
2019-04-06T14:10:35.564Z,71.76
2019-04-06T14:13:23.481Z,72.01
2019-04-06T14:16:17.083Z,72.03
2019-04-06T14:19:18.860Z,72.11
2019-04-06T14:22:11.101Z,71.96
2019-04-06T14:25:00.659Z,71.27
2019-04-06T14:27:49.694Z,70.86
2019-04-06T14:30:42.796Z,70.92
2019-04-06T14:33:31.054Z,71.47
2019-04-06T14:36:23.380Z,70.41
2019-04-06T14:39:11.238Z,71.60
2019-04-06T14:42:00.970Z,72.09
2019-04-06T14:44:53.498Z,70.87
2019-04-06T14:47:49.365Z,71.20
2019-04-06T14:50:30.051Z,71.04
2019-04-06T14:53:18.370Z,72.06
2019-04-06T14:56:07.934Z,71.56
2019-04-06T14:59:06.390Z,71.53
2019-04-06T15:01:59.330Z,71.42
2019-04-06T15:04:45.951Z,72.07
2019-04-06T15:07:44.563Z,73.21
2019-04-06T15:10:24.508Z,73.35
2019-04-06T15:13:05.597Z,73.67
2019-04-06T15:16:07.378Z,73.61
2019-04-06T15:19:00.143Z,73.44
2019-04-06T15:21:59.588Z,73.38
2019-04-06T15:24:52.961Z,74.11
2019-04-06T15:27:51.902Z,74.05
2019-04-06T15:30:32.655Z,73.83
2019-04-06T15:33:20.888Z,73.98
2019-04-06T15:36:19.460Z,72.96
2019-04-06T15:39:27.364Z,73.43
2019-04-06T15:42:10.595Z,72.59
2019-04-06T15:45:17.963Z,72.94
2019-04-06T15:48:05.866Z,74.02
2019-04-06T15:50:43.852Z,74.11
2019-04-06T15:53:35.215Z,73.96
2019-04-06T15:56:21.057Z,73.69
2019-04-06T15:59:10.556Z,74.76
2019-04-06T16:02:02.362Z,75.06
2019-04-06T16:04:54.164Z,75.18
2019-04-06T16:07:58.636Z,74.95
2019-04-06T16:10:37.942Z,74.98
2019-04-06T16:13:36.304Z,75.08
2019-04-06T16:16:12.044Z,74.68
2019-04-06T16:18:52.686Z,74.95
2019-04-06T16:21:36.052Z,74.24
2019-04-06T16:24:13.859Z,74.97
2019-04-06T16:26:50.637Z,75.06
2019-04-06T16:29:49.304Z,75.11
2019-04-06T16:32:41.596Z,74.63
2019-04-06T16:35:28.765Z,75.29
2019-04-06T16:38:27.095Z,75.63
2019-04-06T16:41:20.569Z,75.72
2019-04-06T16:44:10.261Z,76.08
2019-04-06T16:47:02.742Z,75.82
2019-04-06T16:49:45.467Z,76.82
2019-04-06T16:52:34.620Z,79.10
2019-04-06T16:55:33.651Z,79.61
2019-04-06T16:58:26.200Z,80.11
2019-04-06T17:01:21.781Z,80.04
2019-04-06T17:04:19.812Z,79.88
2019-04-06T17:07:12.435Z,79.44
2019-04-06T17:10:00.475Z,79.78
2019-04-06T17:12:46.939Z,80.35
2019-04-06T17:15:54.863Z,80.40
2019-04-06T17:18:50.510Z,81.76
2019-04-06T17:21:41.280Z,81.27
2019-04-06T17:24:28.595Z,81.88
2019-04-06T17:27:21.111Z,82.16
2019-04-06T17:30:10.007Z,81.63
2019-04-06T17:33:03.039Z,81.37
2019-04-06T17:35:58.387Z,81.99
2019-04-06T17:38:53.637Z,82.25
2019-04-06T17:41:34.126Z,81.81
2019-04-06T17:44:35.929Z,82.94
2019-04-06T17:47:17.429Z,84.19
2019-04-06T17:50:09.838Z,84.16
2019-04-06T17:53:00.715Z,84.26
2019-04-06T17:55:58.739Z,84.76
2019-04-06T17:58:50.715Z,85.80
2019-04-06T18:01:39.574Z,86.18
2019-04-06T18:04:21.655Z,86.23
2019-04-06T18:07:11.203Z,86.56
2019-04-06T18:09:52.797Z,86.70
2019-04-06T18:12:30.822Z,86.96
2019-04-06T18:15:01.988Z,86.75
2019-04-06T18:17:32.616Z,87.07
2019-04-06T18:20:03.724Z,87.16
2019-04-06T18:22:34.355Z,87.49
2019-04-06T18:25:05.663Z,87.72
2019-04-06T18:27:36.302Z,87.88
2019-04-06T18:30:08.180Z,87.73
2019-04-06T18:32:43.915Z,87.79
2019-04-06T18:35:14.514Z,88.41
2019-04-06T18:38:04.027Z,88.50
2019-04-06T18:40:34.685Z,88.84
2019-04-06T18:43:05.264Z,89.39
2019-04-06T18:45:35.940Z,89.72
2019-04-06T18:48:09.338Z,89.82
2019-04-06T18:50:39.987Z,89.69
2019-04-06T18:53:10.546Z,89.64
2019-04-06T18:55:41.215Z,90.06
2019-04-06T18:58:13.062Z,90.54
2019-04-06T19:00:44.633Z,90.63
2019-04-06T19:03:16.750Z,90.70
2019-04-06T19:05:49.875Z,90.96
2019-04-06T19:08:19.964Z,90.93
2019-04-06T19:10:51.015Z,91.18
2019-04-06T19:13:21.687Z,91.31
2019-04-06T19:15:52.367Z,91.64
2019-04-06T19:18:22.976Z,91.62
2019-04-06T19:20:53.785Z,92.39
2019-04-06T19:23:26.572Z,92.44
2019-04-06T19:25:59.112Z,92.18
2019-04-06T19:28:30.002Z,92.17
2019-04-06T19:31:00.931Z,92.56
2019-04-06T19:33:31.566Z,92.89
2019-04-06T19:36:02.265Z,93.33
2019-04-06T19:38:32.827Z,93.55
2019-04-06T19:41:03.803Z,93.47
2019-04-06T19:43:34.394Z,93.58
2019-04-06T19:46:05.431Z,93.66
2019-04-06T19:48:36.447Z,93.90
2019-04-06T19:51:08.622Z,94.21
2019-04-06T19:53:39.486Z,94.16
2019-04-06T19:56:10.938Z,94.29
2019-04-06T19:58:41.550Z,94.47
2019-04-06T20:01:15.068Z,94.48
2019-04-06T20:03:46.259Z,94.71
2019-04-06T20:06:20.053Z,94.93
2019-04-06T20:08:50.928Z,95.01
2019-04-06T20:11:22.030Z,95.02
2019-04-06T20:13:52.741Z,95.07
2019-04-06T20:16:23.332Z,95.24
2019-04-06T20:18:54.344Z,95.92
2019-04-06T20:21:25.379Z,95.93
2019-04-06T20:23:56.197Z,95.80
2019-04-06T20:26:26.860Z,95.63
2019-04-06T20:28:57.945Z,95.71
2019-04-06T20:31:28.964Z,95.81
2019-04-06T20:34:00.796Z,95.93
2019-04-06T20:36:31.623Z,96.49
2019-04-06T20:39:02.253Z,96.32
2019-04-06T20:41:33.408Z,96.37
2019-04-06T20:44:04.501Z,96.36
2019-04-06T20:46:35.755Z,96.54
2019-04-06T20:49:07.698Z,96.56
2019-04-06T20:51:38.301Z,96.69
2019-04-06T20:54:09.151Z,96.72
2019-04-06T20:56:40.299Z,96.63
2019-04-06T20:59:10.926Z,96.57
2019-04-06T21:01:41.693Z,96.63
2019-04-06T21:04:12.302Z,96.71
2019-04-06T21:06:44.728Z,96.79
2019-04-06T21:09:15.449Z,96.79
2019-04-06T21:11:46.172Z,96.91
2019-04-06T21:14:16.753Z,97.03
2019-04-06T21:16:48.363Z,97.11
2019-04-06T21:19:19.344Z,97.01
2019-04-06T21:21:50.389Z,96.99
2019-04-06T21:24:21.152Z,97.27
2019-04-06T21:26:52.243Z,97.31
2019-04-06T21:29:23.471Z,97.40
2019-04-06T21:31:54.296Z,97.33
2019-04-06T21:34:27.220Z,97.24
2019-04-06T21:36:58.672Z,97.35
2019-04-06T21:39:29.303Z,97.32
2019-04-06T21:41:59.943Z,97.24
2019-04-06T21:44:32.029Z,97.54
2019-04-06T21:47:03.144Z,97.68
2019-04-06T21:49:33.730Z,97.80
2019-04-06T21:52:07.577Z,97.68
2019-04-06T21:54:38.204Z,97.59
2019-04-06T21:57:10.543Z,97.69
2019-04-06T21:59:41.734Z,97.64
2019-04-06T22:02:13.727Z,97.63
2019-04-06T22:04:44.272Z,97.72
2019-04-06T22:07:14.895Z,97.99
2019-04-06T22:09:45.519Z,98.10
2019-04-06T22:12:16.298Z,98.14
2019-04-06T22:14:49.670Z,98.00
2019-04-06T22:17:20.330Z,97.94
2019-04-06T22:19:50.936Z,98.07
2019-04-06T22:22:22.242Z,98.07
2019-04-06T22:24:52.816Z,98.04
2019-04-06T22:27:23.414Z,98.01
2019-04-06T22:29:53.935Z,98.01
2019-04-06T22:32:24.544Z,98.16
2019-04-06T22:34:55.674Z,98.21
2019-04-06T22:37:26.481Z,98.27
2019-04-06T22:39:57.065Z,98.10
2019-04-06T22:42:27.662Z,98.35
2019-04-06T22:44:58.644Z,98.52
2019-04-06T22:47:29.357Z,98.50
2019-04-06T22:50:00.484Z,98.60
2019-04-06T22:52:31.563Z,98.41
2019-04-06T22:55:02.310Z,98.36
2019-04-06T22:57:34.860Z,98.36
2019-04-06T23:00:06.764Z,98.50
2019-04-06T23:03:02.575Z,98.87
2019-04-06T23:05:40.688Z,98.81
2019-04-06T23:08:11.336Z,98.75
2019-04-06T23:10:42.179Z,98.98
2019-04-06T23:13:13.238Z,98.93
2019-04-06T23:15:43.962Z,98.94
2019-04-06T23:18:15.064Z,98.89
2019-04-06T23:20:46.060Z,98.98
2019-04-06T23:23:16.735Z,99.29
2019-04-06T23:25:47.332Z,99.54
2019-04-06T23:28:18.140Z,99.52
2019-04-06T23:30:48.917Z,99.49
2019-04-06T23:33:20.044Z,99.82
2019-04-06T23:35:50.936Z,99.76
2019-04-06T23:38:22.291Z,99.57
2019-04-06T23:40:52.808Z,99.86
2019-04-06T23:43:24.185Z,99.95
2019-04-06T23:45:59.401Z,100.00
2019-04-06T23:48:30.045Z,100.00
2019-04-06T23:51:03.016Z,100.00
2019-04-06T23:53:34.405Z,100.00
2019-04-06T23:56:07.150Z,100.00
2019-04-06T23:58:38.433Z,100.00
